Time;durP1;ratioP1;P1;durP2;ratioP2;P2;SDS_P1;SDS_P2;PMS_P1;PMS_P2;Temp;Humidity;BMP_temperature;BMP_pressure;BME280_temperature;BME280_humidity;BME280_pressure;Samples;Min_cycle;Max_cycle;Signal;HPM_P1;HPM_P2
2022/10/12 00:02:00;;;;;;;16.40;9.50;;;;;10.80;98126.40;;;;108905;1269;41181;-62
2022/10/12 00:04:30;;;;;;;16.50;8.20;;;;;10.80;98123.40;;;;108872;1270;42304;-62
2022/10/12 00:06:59;;;;;;;15.40;8.70;;;;;10.80;98126.60;;;;108994;1259;41146;-62
2022/10/12 00:09:29;;;;;;;21.10;10.80;;;;;10.70;98128.80;;;;109030;1255;41209;-62
2022/10/12 00:12:00;;;;;;;15.90;9.00;;;;;10.70;98127.40;;;;108989;1269;41142;-62
2022/10/12 00:14:30;;;;;;;15.90;9.30;;;;;10.60;98136.20;;;;108994;1265;41607;-62
2022/10/12 00:17:00;;;;;;;13.00;6.60;;;;;10.60;98131.60;;;;109034;1260;41142;-62
2022/10/12 00:19:29;;;;;;;15.70;7.60;;;;;10.60;98131.80;;;;109049;1261;41577;-61
2022/10/12 00:21:59;;;;;;;16.10;8.40;;;;;10.60;98133.40;;;;108931;1269;41234;-60
2022/10/12 00:24:29;;;;;;;19.50;9.60;;;;;10.60;98136.00;;;;108910;1271;41485;-61
2022/10/12 00:26:59;;;;;;;16.60;8.30;;;;;10.54;98130.20;;;;108970;1269;41221;-61
2022/10/12 00:29:30;;;;;;;15.60;7.50;;;;;10.50;98137.40;;;;108846;1269;41231;-61
2022/10/12 00:32:01;;;;;;;13.30;7.10;;;;;10.50;98136.20;;;;108904;1269;41141;-61
2022/10/12 00:34:32;;;;;;;15.00;7.70;;;;;10.50;98137.20;;;;108916;1269;41185;-61
2022/10/12 00:37:03;;;;;;;14.00;6.30;;;;;10.50;98135.60;;;;108841;1270;41161;-61
2022/10/12 00:39:33;;;;;;;;;;;;;10.50;98135.60;;;;109062;1269;41146;-62
2022/10/12 00:42:05;;;;;;;12.40;6.10;;;;;10.50;98132.40;;;;108997;1269;41145;-61
2022/10/12 00:44:40;;;;;;;15.30;7.60;;;;;10.50;98129.80;;;;108818;1266;41168;-61
2022/10/12 00:47:36;;;;;;;12.20;6.00;;;;;10.50;98125.80;;;;108966;1269;41364;-63
2022/10/12 00:50:14;;;;;;;12.30;6.20;;;;;10.50;98124.40;;;;108791;1270;41232;-63
2022/10/12 00:53:11;;;;;;;13.20;6.50;;;;;10.50;98124.40;;;;109018;1269;41151;-62
2022/10/12 00:55:47;;;;;;;12.00;6.20;;;;;10.52;98123.00;;;;108920;1269;41896;-61
2022/10/12 00:58:19;;;;;;;12.00;6.40;;;;;10.50;98126.00;;;;108948;1269;41173;-63
2022/10/12 01:00:49;;;;;;;11.60;6.50;;;;;10.50;98125.20;;;;109017;1266;41178;-62
2022/10/12 01:03:20;;;;;;;12.80;6.30;;;;;10.50;98125.00;;;;108906;1270;41163;-63
2022/10/12 01:05:51;;;;;;;14.50;7.30;;;;;10.50;98125.20;;;;109028;1259;41828;-63
2022/10/12 01:08:22;;;;;;;19.60;8.70;;;;;10.50;98124.40;;;;109019;1269;41622;-63
2022/10/12 01:10:54;;;;;;;15.00;7.60;;;;;10.50;98128.80;;;;109046;1255;41652;-62
2022/10/12 01:13:26;;;;;;;12.60;6.70;;;;;10.40;98128.80;;;;108997;1269;41895;-62
2022/10/12 01:16:08;;;;;;;12.30;6.40;;;;;10.40;98121.20;;;;109045;1266;41414;-62
2022/10/12 01:18:57;;;;;;;12.50;6.20;;;;;10.40;98121.00;;;;109004;1269;41229;-62
2022/10/12 01:21:32;;;;;;;12.50;6.20;;;;;10.40;98118.20;;;;109017;1269;41163;-62
2022/10/12 01:24:23;;;;;;;12.60;6.20;;;;;10.40;98121.80;;;;108948;1268;41639;-63
2022/10/12 01:27:24;;;;;;;13.00;6.20;;;;;10.40;98123.00;;;;108990;1266;41156;-64
2022/10/12 01:30:22;;;;;;;13.40;6.80;;;;;10.40;98123.20;;;;109057;1269;41713;-61
2022/10/12 01:33:04;;;;;;;16.00;8.10;;;;;10.40;98124.80;;;;108936;1269;41151;-63
2022/10/12 01:35:41;;;;;;;13.30;6.60;;;;;10.40;98121.00;;;;108949;1269;41155;-63
2022/10/12 01:38:33;;;;;;;13.40;6.60;;;;;10.40;98121.20;;;;109085;1268;42705;-64
2022/10/12 01:41:26;;;;;;;13.00;6.20;;;;;10.40;98119.60;;;;108742;1267;42397;-62
2022/10/12 01:43:57;;;;;;;13.00;6.20;;;;;10.40;98120.40;;;;108769;1271;41546;-61
2022/10/12 01:46:27;;;;;;;12.00;6.00;;;;;10.40;98119.80;;;;108884;1269;41508;-62
2022/10/12 01:49:00;;;;;;;13.40;6.30;;;;;10.40;98127.60;;;;108899;1269;41165;-62
2022/10/12 01:51:43;;;;;;;13.60;6.90;;;;;10.40;98125.60;;;;108660;1271;41243;-63
2022/10/12 01:54:21;;;;;;;14.40;6.50;;;;;10.40;98131.00;;;;108963;1269;41734;-63
2022/10/12 01:57:05;;;;;;;12.40;6.00;;;;;10.40;98131.60;;;;109025;1270;41648;-62
2022/10/12 01:59:45;;;;;;;15.70;7.70;;;;;10.40;98132.00;;;;108984;1271;41886;-62
2022/10/12 02:02:36;;;;;;;15.30;8.00;;;;;10.40;98134.00;;;;108994;1269;41147;-62
2022/10/12 02:05:37;;;;;;;15.30;8.20;;;;;10.40;98136.60;;;;109082;1256;40834;-62
2022/10/12 02:08:26;;;;;;;15.10;7.80;;;;;10.40;98136.00;;;;108713;1271;41280;-62
2022/10/12 02:11:08;;;;;;;18.30;9.00;;;;;10.40;98141.80;;;;109022;1271;41624;-63
2022/10/12 02:13:44;;;;;;;16.20;8.10;;;;;10.38;98138.40;;;;109038;1269;41401;-63
2022/10/12 02:16:18;;;;;;;15.30;8.90;;;;;10.30;98139.80;;;;109030;1270;41148;-62
2022/10/12 02:18:51;;;;;;;16.40;9.10;;;;;10.30;98138.80;;;;109021;1269;41152;-62
2022/10/12 02:21:23;;;;;;;16.60;9.10;;;;;10.22;98141.60;;;;109028;1266;41613;-62
2022/10/12 02:23:55;;;;;;;13.80;7.20;;;;;10.20;98149.00;;;;109066;1260;41167;-63
2022/10/12 02:26:24;;;;;;;;;;;;;10.20;98147.40;;;;108988;1271;41173;-62
2022/10/12 02:28:56;;;;;;;12.20;6.70;;;;;10.20;98147.80;;;;108936;1270;41286;-64
2022/10/12 02:31:26;;;;;;;11.80;6.00;;;;;10.20;98145.20;;;;109014;1270;42178;-63
2022/10/12 02:34:05;;;;;;;12.60;6.40;;;;;10.20;98147.60;;;;108954;1266;41171;-63
2022/10/12 02:37:01;;;;;;;13.20;6.40;;;;;10.22;98148.20;;;;108972;1269;42715;-62
2022/10/12 02:39:39;;;;;;;11.90;6.10;;;;;10.28;98145.20;;;;108862;1271;41156;-62
2022/10/12 02:42:12;;;;;;;12.10;5.80;;;;;10.22;98147.20;;;;108977;1270;42670;-62
2022/10/12 02:44:42;;;;;;;16.90;6.80;;;;;10.26;98145.40;;;;109025;1258;41176;-62
2022/10/12 02:47:12;;;;;;;13.60;6.50;;;;;10.26;98144.60;;;;109006;1266;41140;-62
2022/10/12 02:49:42;;;;;;;13.30;5.80;;;;;10.30;98148.60;;;;108961;1266;42207;-62
2022/10/12 02:52:12;;;;;;;12.30;6.00;;;;;10.30;98145.40;;;;108986;1271;41134;-61
2022/10/12 02:54:42;;;;;;;13.40;5.80;;;;;10.30;98142.00;;;;109076;1269;41155;-62
2022/10/12 02:57:12;;;;;;;15.00;5.90;;;;;10.30;98145.00;;;;109022;1270;41815;-62
2022/10/12 02:59:41;;;;;;;10.90;5.80;;;;;10.30;98140.60;;;;109026;1269;41147;-62
2022/10/12 03:02:11;;;;;;;10.80;5.60;;;;;10.30;98137.80;;;;108995;1271;41988;-61
2022/10/12 03:04:40;;;;;;;11.50;5.50;;;;;10.30;98137.40;;;;108992;1269;41153;-62
2022/10/12 03:07:10;;;;;;;12.80;6.20;;;;;10.30;98139.00;;;;109025;1271;41163;-62
2022/10/12 03:09:38;;;;;;;12.70;5.70;;;;;10.30;98137.80;;;;109007;1270;41605;-62
2022/10/12 03:12:08;;;;;;;15.20;6.10;;;;;10.30;98138.80;;;;108967;1270;41167;-62
2022/10/12 03:14:38;;;;;;;13.80;7.40;;;;;10.30;98140.00;;;;108978;1270;41228;-62
2022/10/12 03:17:07;;;;;;;13.70;7.80;;;;;10.30;98141.20;;;;109064;1257;41697;-63
2022/10/12 03:19:38;;;;;;;17.60;7.00;;;;;10.30;98140.40;;;;108986;1261;41637;-62
2022/10/12 03:22:08;;;;;;;15.80;7.70;;;;;10.30;98144.20;;;;109007;1264;42155;-62
2022/10/12 03:24:37;;;;;;;15.50;6.70;;;;;10.20;98144.20;;;;109028;1264;41195;-63
2022/10/12 03:27:07;;;;;;;13.10;6.30;;;;;10.20;98141.20;;;;109093;1271;41144;-62
2022/10/12 03:29:36;;;;;;;11.40;5.80;;;;;10.20;98136.80;;;;109007;1270;41147;-63
2022/10/12 03:32:06;;;;;;;10.00;5.10;;;;;10.20;98139.00;;;;108964;1267;41136;-62
2022/10/12 03:34:34;;;;;;;11.10;5.70;;;;;10.24;98140.40;;;;109002;1271;41164;-61
2022/10/12 03:37:04;;;;;;;15.00;7.10;;;;;10.28;98140.20;;;;109014;1270;41630;-63
2022/10/12 03:39:33;;;;;;;14.80;8.30;;;;;10.30;98142.00;;;;108984;1269;41170;-61
2022/10/12 03:42:02;;;;;;;16.40;8.70;;;;;10.30;98138.80;;;;109106;1270;41130;-62
2022/10/12 03:44:31;;;;;;;15.30;8.00;;;;;10.30;98142.20;;;;109006;1270;42397;-62
2022/10/12 03:46:59;;;;;;;19.20;8.40;;;;;10.30;98141.40;;;;108982;1269;42019;-62
2022/10/12 03:49:28;;;;;;;14.70;8.20;;;;;10.20;98141.80;;;;109058;1270;41455;-62
2022/10/12 03:51:57;;;;;;;17.60;7.60;;;;;10.20;98144.40;;;;109021;1265;41614;-62
2022/10/12 03:54:26;;;;;;;17.00;7.80;;;;;10.20;98144.80;;;;108975;1271;41630;-62
2022/10/12 03:56:55;;;;;;;17.50;8.60;;;;;10.20;98141.40;;;;108797;1271;41151;-61
2022/10/12 03:59:24;;;;;;;14.50;7.40;;;;;10.20;98141.60;;;;108896;1260;41142;-61
2022/10/12 04:01:53;;;;;;;14.10;7.00;;;;;10.20;98147.20;;;;109028;1260;41690;-61
2022/10/12 04:04:23;;;;;;;13.30;7.10;;;;;10.10;98146.60;;;;109013;1266;41136;-62
2022/10/12 04:07:00;;;;;;;13.00;7.00;;;;;10.10;98145.20;;;;108989;1270;41807;-62
2022/10/12 04:09:35;;;;;;;15.20;6.30;;;;;10.04;98146.20;;;;108994;1270;41160;-62
2022/10/12 04:12:06;;;;;;;12.80;6.10;;;;;10.00;98151.60;;;;109060;1270;41148;-62
2022/10/12 04:14:38;;;;;;;13.70;6.10;;;;;10.00;98143.20;;;;108990;1269;41170;-61
2022/10/12 04:17:08;;;;;;;10.00;5.20;;;;;10.08;98146.20;;;;109031;1265;41639;-62
2022/10/12 04:19:37;;;;;;;9.60;4.90;;;;;10.10;98152.20;;;;108981;1271;42524;-63
2022/10/12 04:22:06;;;;;;;12.40;5.90;;;;;10.10;98153.00;;;;108878;1270;42513;-62
2022/10/12 04:24:35;;;;;;;11.10;5.80;;;;;10.10;98151.00;;;;108942;1269;41696;-62
2022/10/12 04:27:06;;;;;;;13.10;6.90;;;;;10.10;98150.20;;;;109056;1271;41241;-62
2022/10/12 04:29:36;;;;;;;15.20;6.60;;;;;10.10;98148.60;;;;109066;1271;41640;-62
2022/10/12 04:32:05;;;;;;;13.10;6.80;;;;;10.10;98146.40;;;;108962;1271;41928;-61
2022/10/12 04:34:39;;;;;;;12.60;6.60;;;;;10.10;98146.00;;;;108976;1269;41130;-61
2022/10/12 04:37:07;;;;;;;17.90;8.10;;;;;10.02;98149.60;;;;109182;1271;41694;-61
2022/10/12 04:39:36;;;;;;;13.70;6.40;;;;;10.00;98151.60;;;;109000;1268;41150;-61
2022/10/12 04:42:06;;;;;;;11.10;5.60;;;;;10.00;98151.60;;;;108986;1267;41350;-62
2022/10/12 04:44:34;;;;;;;12.40;6.10;;;;;10.00;98153.20;;;;108998;1271;41176;-62
2022/10/12 04:47:04;;;;;;;11.90;5.60;;;;;10.00;98152.40;;;;109062;1269;41162;-61
2022/10/12 04:49:32;;;;;;;15.90;5.70;;;;;10.00;98154.00;;;;109144;1268;41585;-61
2022/10/12 04:52:01;;;;;;;19.20;6.80;;;;;10.00;98157.00;;;;108973;1270;41180;-63
2022/10/12 04:54:31;;;;;;;14.60;6.40;;;;;9.90;98161.60;;;;109051;1269;41166;-63
2022/10/12 04:57:01;;;;;;;13.60;6.50;;;;;9.90;98163.40;;;;108920;1269;41143;-62
2022/10/12 04:59:30;;;;;;;10.80;5.30;;;;;9.92;98161.40;;;;109128;1269;41174;-61
2022/10/12 05:02:00;;;;;;;14.00;5.70;;;;;10.00;98162.00;;;;108946;1271;41266;-62
2022/10/12 05:04:29;;;;;;;11.40;5.60;;;;;10.00;98162.60;;;;108724;1264;42087;-62
2022/10/12 05:06:58;;;;;;;10.40;5.50;;;;;10.00;98167.40;;;;108907;1270;41442;-62
2022/10/12 05:09:27;;;;;;;12.80;6.20;;;;;10.02;98166.60;;;;108915;1271;41600;-62
2022/10/12 05:11:58;;;;;;;14.00;6.40;;;;;10.10;98169.60;;;;108903;1271;41150;-62
2022/10/12 05:14:26;;;;;;;12.10;5.90;;;;;10.10;98171.20;;;;108925;1270;41236;-61
2022/10/12 05:16:59;;;;;;;13.80;6.70;;;;;10.10;98170.20;;;;109028;1271;41167;-61
2022/10/12 05:19:28;;;;;;;21.60;8.40;;;;;10.20;98171.40;;;;109074;1256;41142;-62
2022/10/12 05:21:59;;;;;;;11.60;6.90;;;;;10.20;98177.80;;;;109123;1264;41136;-62
2022/10/12 05:24:28;;;;;;;;;;;;;10.20;98172.00;;;;109032;1261;41180;-62
2022/10/12 05:26:57;;;;;;;12.60;6.20;;;;;10.20;98177.20;;;;108994;1271;41575;-62
2022/10/12 05:29:26;;;;;;;11.20;6.30;;;;;10.20;98178.40;;;;109045;1266;41145;-62
2022/10/12 05:31:55;;;;;;;12.50;6.00;;;;;10.30;98181.40;;;;108898;1270;41804;-62
2022/10/12 05:34:24;;;;;;;12.30;6.40;;;;;10.30;98185.40;;;;108740;1270;344143;-61
2022/10/12 05:36:52;;;;;;;13.40;5.70;;;;;10.30;98187.00;;;;109024;1271;41541;-62
2022/10/12 05:39:21;;;;;;;12.00;5.90;;;;;10.38;98188.40;;;;109105;1264;41142;-62
2022/10/12 05:41:53;;;;;;;13.50;6.10;;;;;10.40;98187.00;;;;109079;1268;41392;-62
2022/10/12 05:44:21;;;;;;;12.10;6.10;;;;;10.40;98192.40;;;;108994;1270;41487;-62
2022/10/12 05:46:50;;;;;;;11.60;5.80;;;;;10.50;98197.00;;;;108947;1269;41153;-61
2022/10/12 05:49:19;;;;;;;12.40;6.10;;;;;10.50;98192.00;;;;109038;1270;42547;-62
2022/10/12 05:51:48;;;;;;;11.90;5.80;;;;;10.60;98199.20;;;;108988;1270;42577;-61
2022/10/12 05:54:16;;;;;;;15.50;6.60;;;;;10.60;98201.40;;;;109001;1261;42558;-62
2022/10/12 05:56:45;;;;;;;12.60;5.90;;;;;10.70;98206.00;;;;109064;1257;41146;-62
2022/10/12 05:59:14;;;;;;;17.90;8.20;;;;;10.80;98203.20;;;;109018;1266;41181;-62
2022/10/12 06:01:42;;;;;;;19.50;10.00;;;;;10.80;98206.00;;;;109027;1257;41237;-62
2022/10/12 06:04:11;;;;;;;20.50;9.80;;;;;10.90;98204.80;;;;109055;1267;41146;-62
2022/10/12 06:06:40;;;;;;;20.00;11.30;;;;;10.90;98209.20;;;;109052;1256;41147;-62
2022/10/12 06:09:11;;;;;;;19.80;10.10;;;;;10.90;98205.60;;;;109075;1269;41312;-61
2022/10/12 06:11:39;;;;;;;15.50;8.90;;;;;10.90;98210.20;;;;109022;1271;41130;-62
2022/10/12 06:14:08;;;;;;;14.40;7.50;;;;;11.00;98215.40;;;;109012;1269;41241;-62
2022/10/12 06:16:38;;;;;;;13.80;7.60;;;;;11.08;98215.80;;;;108900;1271;41163;-61
2022/10/12 06:19:09;;;;;;;15.90;7.80;;;;;11.10;98217.00;;;;109072;1271;42150;-62
2022/10/12 06:21:38;;;;;;;15.70;6.70;;;;;11.20;98219.00;;;;109030;1260;41395;-62
2022/10/12 06:24:07;;;;;;;13.40;6.90;;;;;11.30;98221.80;;;;109078;1266;41241;-62
2022/10/12 06:26:35;;;;;;;11.70;5.90;;;;;11.40;98219.40;;;;109067;1269;42402;-61
2022/10/12 06:29:04;;;;;;;14.40;7.10;;;;;11.48;98219.20;;;;109075;1269;41384;-61
2022/10/12 06:31:33;;;;;;;15.70;8.60;;;;;11.60;98223.80;;;;109043;1257;41419;-62
2022/10/12 06:34:02;;;;;;;15.90;8.60;;;;;11.70;98228.20;;;;109049;1267;41221;-62
2022/10/12 06:36:31;;;;;;;21.60;11.20;;;;;11.80;98227.00;;;;109017;1271;41180;-62
2022/10/12 06:38:59;;;;;;;23.50;11.50;;;;;11.90;98230.20;;;;108975;1270;40761;-63
2022/10/12 06:41:28;;;;;;;23.20;11.60;;;;;11.98;98232.20;;;;108979;1269;42468;-62
2022/10/12 06:43:57;;;;;;;25.60;11.90;;;;;12.04;98234.60;;;;108977;1271;42006;-62
2022/10/12 06:46:25;;;;;;;19.20;10.40;;;;;12.10;98233.20;;;;108887;1257;41237;-62
2022/10/12 06:48:54;;;;;;;27.20;14.30;;;;;12.24;98235.60;;;;108951;1270;41153;-62
2022/10/12 06:51:23;;;;;;;22.60;13.90;;;;;12.30;98245.40;;;;108895;1271;41309;-62
2022/10/12 06:53:55;;;;;;;21.20;12.80;;;;;12.40;98242.60;;;;108947;1269;41242;-62
2022/10/12 06:56:24;;;;;;;23.70;13.50;;;;;12.50;98242.20;;;;108967;1270;41616;-62
2022/10/12 06:58:54;;;;;;;26.30;14.60;;;;;12.50;98238.20;;;;109049;1260;41661;-62
2022/10/12 07:01:23;;;;;;;27.30;13.90;;;;;12.60;98239.20;;;;108995;1269;41232;-62
2022/10/12 07:03:52;;;;;;;26.20;13.10;;;;;12.70;98242.20;;;;108984;1271;42032;-61
2022/10/12 07:06:25;;;;;;;21.30;12.90;;;;;12.80;98242.00;;;;109001;1271;41148;-61
2022/10/12 07:08:54;;;;;;;21.90;12.10;;;;;12.90;98237.20;;;;108913;1272;41416;-61
2022/10/12 07:11:22;;;;;;;23.90;11.90;;;;;13.00;98238.40;;;;108675;1271;41149;-63
2022/10/12 07:13:51;;;;;;;21.90;12.20;;;;;13.08;98236.80;;;;108941;1271;42593;-62
2022/10/12 07:16:20;;;;;;;20.60;10.50;;;;;13.20;98240.80;;;;108979;1271;42599;-61
2022/10/12 07:18:49;;;;;;;22.00;11.60;;;;;13.24;98242.00;;;;108911;1256;41145;-62
2022/10/12 07:21:18;;;;;;;23.60;11.30;;;;;13.30;98240.40;;;;108978;1271;41606;-61
2022/10/12 07:23:47;;;;;;;24.90;14.80;;;;;13.40;98239.60;;;;108806;1269;41161;-61
2022/10/12 07:26:16;;;;;;;26.10;14.50;;;;;13.50;98240.20;;;;108980;1271;41249;-61
2022/10/12 07:28:44;;;;;;;31.40;14.00;;;;;13.60;98241.00;;;;109008;1269;41164;-61
2022/10/12 07:31:13;;;;;;;23.80;14.50;;;;;13.60;98237.40;;;;109099;1271;42876;-61
2022/10/12 07:33:42;;;;;;;24.50;13.20;;;;;13.70;98237.00;;;;108946;1266;42142;-61
2022/10/12 07:36:11;;;;;;;26.00;13.40;;;;;13.78;98230.60;;;;109101;1271;42198;-62
2022/10/12 07:38:43;;;;;;;23.40;14.10;;;;;13.88;98231.80;;;;108976;1271;41169;-63
2022/10/12 07:41:13;;;;;;;26.20;13.80;;;;;13.92;98228.80;;;;109042;1270;41138;-62
2022/10/12 07:43:42;;;;;;;18.10;11.00;;;;;14.10;98230.60;;;;109183;1266;41236;-61
2022/10/12 07:46:11;;;;;;;20.30;11.30;;;;;14.24;98230.00;;;;109060;1270;41230;-61
2022/10/12 07:48:40;;;;;;;17.50;10.10;;;;;14.40;98234.20;;;;109006;1266;41170;-62
2022/10/12 07:51:14;;;;;;;15.10;8.70;;;;;14.52;98222.80;;;;108960;1271;41817;-62
2022/10/12 07:53:43;;;;;;;18.20;9.10;;;;;14.70;98225.80;;;;108972;1270;41616;-62
2022/10/12 07:56:15;;;;;;;16.80;9.60;;;;;14.84;98223.20;;;;109015;1271;41160;-61
2022/10/12 07:58:55;;;;;;;20.00;10.40;;;;;15.00;98225.00;;;;109002;1269;41131;-61
2022/10/12 08:01:26;;;;;;;17.30;9.20;;;;;15.16;98222.40;;;;109000;1271;42420;-62
2022/10/12 08:03:55;;;;;;;16.30;7.80;;;;;15.30;98221.40;;;;108973;1271;41168;-62
2022/10/12 08:06:31;;;;;;;13.70;7.00;;;;;15.52;98220.20;;;;109026;1267;41192;-61
2022/10/12 08:09:00;;;;;;;14.00;6.80;;;;;15.78;98217.40;;;;108988;1271;41150;-62
2022/10/12 08:11:29;;;;;;;13.10;6.10;;;;;16.00;98216.20;;;;109001;1265;41152;-61
2022/10/12 08:13:58;;;;;;;10.40;5.30;;;;;16.24;98213.00;;;;109036;1271;41255;-62
2022/10/12 08:16:26;;;;;;;15.80;7.10;;;;;16.52;98214.00;;;;108959;1270;41145;-61
2022/10/12 08:18:55;;;;;;;14.10;6.00;;;;;16.80;98212.00;;;;108983;1271;41689;-61
2022/10/12 08:21:24;;;;;;;12.60;5.50;;;;;17.14;98207.00;;;;109038;1271;41236;-61
2022/10/12 08:23:53;;;;;;;13.70;5.80;;;;;17.52;98207.00;;;;108938;1271;42164;-61
2022/10/12 08:26:22;;;;;;;9.30;4.60;;;;;17.92;98204.00;;;;109037;1271;41172;-61
2022/10/12 08:28:51;;;;;;;12.80;5.40;;;;;18.42;98204.40;;;;108993;1266;41662;-61
2022/10/12 08:31:20;;;;;;;13.00;5.60;;;;;18.84;98197.40;;;;108945;1271;41146;-61
2022/10/12 08:33:49;;;;;;;15.70;6.90;;;;;19.24;98192.00;;;;109031;1263;42126;-61
2022/10/12 08:36:18;;;;;;;17.60;6.10;;;;;19.30;98189.80;;;;108965;1269;41360;-61
2022/10/12 08:38:52;;;;;;;14.30;6.80;;;;;19.68;98189.60;;;;108929;1269;41252;-60
2022/10/12 08:41:47;;;;;;;13.40;5.50;;;;;19.88;98185.60;;;;108968;1271;41927;-61
2022/10/12 08:44:21;;;;;;;10.40;4.70;;;;;20.62;98185.20;;;;108803;1271;41695;-61
2022/10/12 08:47:04;;;;;;;13.80;5.90;;;;;21.44;98184.00;;;;108950;1266;41293;-61
2022/10/12 08:49:34;;;;;;;13.20;5.50;;;;;21.84;98178.00;;;;108707;1271;41159;-61
2022/10/12 08:52:05;;;;;;;10.70;5.20;;;;;22.30;98181.80;;;;108941;1271;41253;-59
2022/10/12 08:54:39;;;;;;;10.30;4.90;;;;;22.60;98176.00;;;;108920;1270;41230;-60
2022/10/12 08:57:20;;;;;;;12.40;5.60;;;;;22.98;98171.20;;;;108868;1270;41157;-61
2022/10/12 08:59:49;;;;;;;9.50;4.50;;;;;23.34;98164.60;;;;109014;1269;41381;-61
2022/10/12 09:02:37;;;;;;;10.40;4.70;;;;;23.82;98165.00;;;;108879;1271;41603;-61
2022/10/12 09:05:09;;;;;;;10.30;4.80;;;;;24.18;98157.80;;;;108740;1271;41127;-61
2022/10/12 09:07:41;;;;;;;10.20;4.80;;;;;24.74;98156.80;;;;108856;1271;41179;-61
2022/10/12 09:10:37;;;;;;;9.40;4.10;;;;;24.74;98152.80;;;;109001;1271;41142;-61
2022/10/12 09:13:33;;;;;;;13.20;4.80;;;;;25.40;98148.80;;;;108994;1270;42443;-61
2022/10/12 09:16:05;;;;;;;10.60;4.50;;;;;25.84;98151.40;;;;109039;1271;41152;-62
2022/10/12 09:18:42;;;;;;;10.70;4.10;;;;;26.10;98144.00;;;;108787;1271;41226;-61
2022/10/12 09:21:19;;;;;;;9.20;3.80;;;;;26.30;98145.00;;;;108951;1270;42510;-61
2022/10/12 09:23:48;;;;;;;13.10;4.40;;;;;26.82;98143.40;;;;108756;1273;41605;-61
2022/10/12 09:26:18;;;;;;;10.30;4.40;;;;;27.20;98137.60;;;;108658;1269;41143;-61
2022/10/12 09:28:51;;;;;;;9.20;4.20;;;;;27.54;98140.20;;;;109006;1270;41177;-60
2022/10/12 09:31:25;;;;;;;10.50;4.60;;;;;28.18;98138.00;;;;109004;1269;41153;-61
2022/10/12 09:34:00;;;;;;;8.00;3.60;;;;;28.10;98133.40;;;;109038;1270;41137;-62
2022/10/12 09:36:38;;;;;;;10.00;4.40;;;;;28.22;98134.80;;;;108801;1271;41422;-62
2022/10/12 09:39:38;;;;;;;8.80;3.90;;;;;28.40;98135.40;;;;108961;1271;41357;-61
2022/10/12 09:42:09;;;;;;;8.90;4.10;;;;;28.42;98135.20;;;;109012;1271;41210;-61
2022/10/12 09:44:55;;;;;;;11.30;4.10;;;;;28.00;98135.40;;;;108603;1271;41153;-61
2022/10/12 09:47:27;;;;;;;11.80;3.90;;;;;27.20;98136.60;;;;108546;1270;41180;-61
2022/10/12 09:49:57;;;;;;;9.90;3.90;;;;;27.44;98143.40;;;;108834;1271;41127;-61
2022/10/12 09:52:31;;;;;;;10.70;4.20;;;;;27.50;98135.00;;;;108839;1271;41143;-61
2022/10/12 09:55:15;;;;;;;11.30;4.10;;;;;27.74;98134.00;;;;108830;1271;41156;-61
2022/10/12 09:58:01;;;;;;;8.90;4.00;;;;;27.96;98130.40;;;;108827;1271;41246;-61
2022/10/12 10:00:32;;;;;;;11.50;3.90;;;;;28.50;98129.60;;;;108974;1271;41188;-61
2022/10/12 10:03:01;;;;;;;9.90;3.90;;;;;29.02;98128.00;;;;109027;1271;41226;-61
2022/10/12 10:05:30;;;;;;;9.10;4.00;;;;;29.26;98121.80;;;;108977;1271;42457;-60
2022/10/12 10:08:20;;;;;;;8.40;3.90;;;;;29.96;98124.00;;;;108835;1271;41183;-63
2022/10/12 10:10:52;;;;;;;9.10;4.10;;;;;30.40;98122.80;;;;109041;1262;41149;-63
2022/10/12 10:13:24;;;;;;;9.20;3.60;;;;;30.26;98117.00;;;;108959;1271;41610;-61
2022/10/12 10:16:10;;;;;;;9.00;3.60;;;;;30.64;98117.20;;;;109007;1270;41915;-60
2022/10/12 10:18:47;;;;;;;9.40;4.10;;;;;31.46;98110.40;;;;108918;1271;41246;-61
2022/10/12 10:21:34;;;;;;;9.00;3.70;;;;;31.36;98110.40;;;;108975;1272;41220;-61
2022/10/12 10:24:05;;;;;;;8.30;3.40;;;;;31.38;98113.40;;;;109097;1266;41848;-61
2022/10/12 10:26:57;;;;;;;8.70;3.70;;;;;31.70;98113.00;;;;109016;1269;41173;-61
2022/10/12 10:29:35;;;;;;;14.10;4.20;;;;;31.90;98115.60;;;;109148;1269;41960;-61
2022/10/12 10:32:23;;;;;;;9.10;4.00;;;;;31.36;98123.80;;;;108983;1270;41379;-61
2022/10/12 10:35:11;;;;;;;9.30;4.10;;;;;30.80;98118.80;;;;109009;1270;41153;-61
2022/10/12 10:37:48;;;;;;;7.70;3.40;;;;;29.80;98112.60;;;;108971;1271;41682;-61
2022/10/12 10:40:28;;;;;;;9.40;3.80;;;;;29.42;98120.60;;;;108991;1271;41994;-61
2022/10/12 10:42:58;;;;;;;;;;;;;28.70;98115.40;;;;108870;1271;41498;-61
2022/10/12 10:45:31;;;;;;;10.00;3.80;;;;;28.10;98118.00;;;;109083;1271;41190;-61
2022/10/12 10:48:07;;;;;;;9.90;4.40;;;;;27.62;98117.80;;;;108956;1265;41137;-61
2022/10/12 10:50:40;;;;;;;9.60;3.90;;;;;27.30;98122.20;;;;109157;1257;41133;-61
2022/10/12 10:53:22;;;;;;;11.80;4.80;;;;;27.10;98112.60;;;;109093;1263;41142;-61
2022/10/12 10:56:07;;;;;;;9.90;4.20;;;;;26.18;98115.80;;;;108920;1263;42202;-60
2022/10/12 10:58:48;;;;;;;10.50;3.90;;;;;25.60;98115.00;;;;108987;1259;41221;-61
2022/10/12 11:01:33;;;;;;;10.50;4.80;;;;;25.22;98114.40;;;;108983;1271;41234;-61
2022/10/12 11:04:05;;;;;;;11.90;4.30;;;;;24.62;98113.80;;;;109053;1270;41498;-61
2022/10/12 11:06:39;;;;;;;8.90;4.20;;;;;24.00;98119.20;;;;108907;1262;41240;-61
2022/10/12 11:09:17;;;;;;;12.30;4.90;;;;;23.78;98114.40;;;;109075;1263;41252;-61
2022/10/12 11:12:05;;;;;;;9.80;4.60;;;;;23.36;98114.40;;;;109043;1270;42986;-61
2022/10/12 11:14:42;;;;;;;12.90;4.80;;;;;22.96;98114.60;;;;108950;1271;41141;-61
2022/10/12 11:17:28;;;;;;;10.20;4.40;;;;;22.62;98111.20;;;;108894;1266;41184;-61
2022/10/12 11:20:21;;;;;;;12.30;5.10;;;;;22.28;98114.00;;;;108902;1270;41669;-61
2022/10/12 11:22:56;;;;;;;9.50;4.10;;;;;22.20;98111.00;;;;108950;1271;41881;-62
2022/10/12 11:25:28;;;;;;;11.10;4.90;;;;;22.38;98105.60;;;;108983;1266;42048;-60
2022/10/12 11:27:56;;;;;;;11.00;5.20;;;;;22.48;98102.00;;;;109204;1267;41901;-60
2022/10/12 11:30:30;;;;;;;11.20;4.10;;;;;22.36;98104.80;;;;108923;1271;41139;-61
2022/10/12 11:32:59;;;;;;;11.10;4.80;;;;;22.28;98099.80;;;;108955;1273;41231;-61
2022/10/12 11:35:36;;;;;;;11.90;4.70;;;;;22.14;98103.60;;;;108917;1273;41145;-60
2022/10/12 11:38:26;;;;;;;10.50;4.50;;;;;21.94;98103.00;;;;109005;1262;41291;-62
2022/10/12 11:41:17;;;;;;;8.80;4.00;;;;;22.00;98101.20;;;;109071;1266;41674;-62
2022/10/12 11:44:17;;;;;;;10.50;4.50;;;;;22.10;98096.40;;;;109082;1262;41168;-61
2022/10/12 11:46:54;;;;;;;11.30;5.00;;;;;22.30;98099.60;;;;108861;1271;42001;-61
2022/10/12 11:49:43;;;;;;;10.10;4.80;;;;;22.34;98094.40;;;;109000;1273;40871;-62
2022/10/12 11:52:12;;;;;;;14.60;4.60;;;;;22.40;98093.80;;;;108950;1259;41138;-61
2022/10/12 11:54:58;;;;;;;11.30;4.50;;;;;22.40;98095.60;;;;109027;1275;41624;-62
2022/10/12 11:57:30;;;;;;;9.40;4.20;;;;;22.42;98090.40;;;;109033;1273;42871;-62
2022/10/12 12:00:51;;;;;;;9.10;3.90;;;;;22.60;98090.20;;;;108891;1272;41287;-61
2022/10/12 12:03:36;;;;;;;8.50;3.80;;;;;22.80;98086.40;;;;109005;1269;41234;-60
2022/10/12 12:06:29;;;;;;;9.30;4.20;;;;;22.98;98083.00;;;;108903;1273;41302;-61
2022/10/12 12:09:02;;;;;;;9.00;3.90;;;;;23.00;98080.60;;;;108817;1273;41144;-61
2022/10/12 12:11:32;;;;;;;7.80;3.60;;;;;23.00;98082.40;;;;108952;1270;41229;-61
2022/10/12 12:14:19;;;;;;;11.70;4.50;;;;;23.20;98080.60;;;;109005;1273;41275;-60
2022/10/12 12:16:48;;;;;;;9.00;4.10;;;;;23.40;98079.00;;;;108783;1273;41140;-61
2022/10/12 12:19:43;;;;;;;9.90;4.00;;;;;23.50;98075.00;;;;108762;1274;41316;-61
2022/10/12 12:22:30;;;;;;;11.10;4.90;;;;;23.60;98077.00;;;;108632;1267;42377;-61
2022/10/12 12:25:05;;;;;;;11.00;4.60;;;;;23.40;98076.60;;;;109147;1272;41278;-61
2022/10/12 12:27:43;;;;;;;15.90;5.00;;;;;23.20;98074.60;;;;108928;1274;41179;-61
2022/10/12 12:30:18;;;;;;;8.80;4.00;;;;;23.10;98077.40;;;;109088;1273;42697;-61
2022/10/12 12:33:04;;;;;;;8.30;3.90;;;;;23.20;98077.80;;;;108927;1266;40814;-61
2022/10/12 12:35:38;;;;;;;11.90;4.20;;;;;23.32;98076.40;;;;108976;1273;41145;-61